This is the latest recevied weather packets stored in our database for station/object VE6KEE-13. If no packets are shown the sender has not sent any weather packets the latest 10 day(s).
| Time | Temp. | Humidity | Pressure | Rain* | Wind** | Luminosity | Snow |
|---|---|---|---|---|---|---|---|
| 1777386439 | 2.22° C | 52% | 1018.9 hPa | 0 mm | - | - | - |
| 1777385530 | 0° C | 56% | 1019 hPa | 0 mm | - | - | - |
| 1777384630 | -1.67° C | 59% | 1019 hPa | 0 mm | - | - | - |
| 1777383729 | -2.22° C | 60% | 1019 hPa | 0 mm | - | - | - |
| 1777382828 | -3.33° C | 62% | 1018.9 hPa | 0 mm | - | - | - |
| 1777381928 | -3.33° C | 61% | 1018.9 hPa | 0 mm | - | - | - |
| 1777381033 | -3.33° C | 60% | 1018.8 hPa | 0 mm | - | - | - |
| 1777380126 | -3.33° C | 59% | 1018.8 hPa | 0 mm | - | - | - |
| 1777379225 | -3.33° C | 59% | 1018.6 hPa | 0 mm | - | - | - |
| 1777378325 | -3.33° C | 59% | 1018.6 hPa | 0 mm | - | - | - |
| 1777377424 | -3.33° C | 59% | 1018.5 hPa | 0 mm | - | - | - |
| 1777376527 | -3.33° C | 60% | 1018.3 hPa | 0 mm | - | - | - |
| 1777375626 | -3.33° C | 59% | 1018.4 hPa | 0 mm | - | - | - |
| 1777374721 | -3.33° C | 60% | 1018.2 hPa | 0 mm | - | - | - |
| 1777373821 | -3.33° C | 59% | 1018.2 hPa | 0 mm | - | - | - |
| 1777372920 | -2.78° C | 59% | 1018.2 hPa | 0 mm | - | - | - |
| 1777372019 | -2.78° C | 57% | 1018.1 hPa | 0 mm | - | - | - |
| 1777371119 | -2.22° C | 57% | 1018.1 hPa | 0 mm | - | - | - |
| 1777370225 | -2.22° C | 58% | 1018 hPa | 0 mm | - | - | - |
| 1777369317 | -2.22° C | 56% | 1018.1 hPa | 0 mm | - | - | - |
| 1777368416 | -2.22° C | 56% | 1018.1 hPa | 0 mm | - | - | - |
| 1777367520 | -2.22° C | 56% | 1018.2 hPa | 0 mm | - | - | - |
| 1777366614 | -2.22° C | 57% | 1018.2 hPa | 0 mm | - | - | - |
| 1777365714 | -2.22° C | 56% | 1018.1 hPa | 0 mm | - | - | - |
| 1777364819 | -2.22° C | 57% | 1018.2 hPa | 0 mm | - | - | - |
* Rain since midnight (hover to see other rain measurements)
** Current wind speed in m/s (hover to see current wind gust speed)